Terminal Aerodrome Forecast
Issued by NWS Buffalo, NY

Home | Current Version | Previous Version | Text Only | Print | Product List | Glossary On
Versions: 1 2 3 4 5 6 7 8 9 10 11 12 13 14 15 16 17 18 19 20 21 22 23 24 25 26 27
000
FTUS41 KBUF 230000 AAA
TAFART
TAF AMD
KART 230004Z 2300/2324 02012KT P6SM BKN040
     FM230200 02014KT P6SM BKN040 WS020/04040KT
     FM231200 01012KT P6SM VCSH OVC025=

USA.gov is the U.S. government's official web portal to all federal, state and local government web resources and services.